This is the latest recevied weather packets stored in our database for station/object JL1CBB-13. If no packets are shown the sender has not sent any weather packets the latest 10 day(s).
| Time | Temp. | Humidity | Pressure | Rain* | Wind** | Luminosity | Snow |
|---|---|---|---|---|---|---|---|
| 1777859735 | 29.44° C | 59% | 999 hPa | 0 mm | - | - | - |
| 1777859135 | 29.44° C | 59% | 999 hPa | 0 mm | - | - | - |
| 1777858535 | 30° C | 59% | 999 hPa | 0 mm | - | - | - |
| 1777857934 | 29.44° C | 59% | 999 hPa | 0 mm | - | - | - |
| 1777857334 | 28.89° C | 60% | 999 hPa | 0 mm | - | - | - |
| 1777856734 | 28.89° C | 63% | 999 hPa | 0 mm | - | - | - |
| 1777856134 | 28.89° C | 63% | 999 hPa | 0 mm | - | - | - |
| 1777855534 | 28.89° C | 66% | 999 hPa | 0 mm | - | - | - |
| 1777854934 | 27.22° C | 72% | 999 hPa | 0 mm | - | - | - |
| 1777854334 | 28.33° C | 71% | 999 hPa | 0 mm | - | - | - |
| 1777853734 | 28.33° C | 72% | 999 hPa | 0 mm | - | - | - |
| 1777853134 | 27.78° C | 74% | 999 hPa | 0 mm | - | - | - |
| 1777852534 | 26.67° C | 79% | 999 hPa | 0 mm | - | - | - |
| 1777851934 | 25° C | 86% | 999 hPa | 0 mm | - | - | - |
| 1777851481 | 23.89° C | 88% | 999 hPa | 0 mm | - | - | - |
| 1777850880 | 23.89° C | 90% | 999 hPa | 0 mm | - | - | - |
| 1777850281 | 23.33° C | 91% | 999 hPa | 0 mm | - | - | - |
| 1777849681 | 23.89° C | 91% | 999 hPa | 0 mm | - | - | - |
| 1777849081 | 23.33° C | 92% | 999 hPa | 0 mm | - | - | - |
| 1777848481 | 23.33° C | 94% | 999 hPa | 0 mm | - | - | - |
| 1777847880 | 22.78° C | 95% | 999 hPa | 0 mm | - | - | - |
| 1777847280 | 22.78° C | 95% | 998 hPa | 0 mm | - | - | - |
| 1777846680 | 22.78° C | 96% | 998 hPa | 0 mm | - | - | - |
| 1777846080 | 22.78° C | 98% | 999 hPa | 0 mm | - | - | - |
| 1777845480 | 22.22° C | 98% | 999 hPa | 0 mm | - | - | - |
* Rain latest hour (hover to see other rain measurements)
** Current wind speed in m/s (hover to see current wind gust speed)